Detall de PIREP

Printer-friendly versionPDF version

[2017/08/13 04:29:00]
Flight IATA:CT0001
Pilot Number:041
Company ICAO:CAT
Aircraft Type:B738/F
PAX:121
Departing Airport: LEMH
Destination Airport: LEVC
Alternate Airport:LEBL
Online: VATSIM
Route:EPAMA A33 ARGOR
Flight Level:FL230
No Slew and time accel
No pause
Crash detect
Detect pilot in Cockpit between each 30 and 45 minutes
04:29 Zero fuel Weight: 135504 Lbs, Fuel Weight: 22198 Lbs
04:29 VATSIM:LEMH 130400Z 32004KT 9999 FEW040 19/17 Q1019
04:29 VATSIM:LEVC 130400Z 30004KT 9999 FEW019 20/16 Q1018 NOSIG
04:29 VOICE CATALONIAN
04:34 Parking Brakes off
04:46 Take-off
04:46 Take off Weight: 156813 Lbs
04:46 Wind: 211º @ 007 Knots Heading: 008º
04:46 POS N39º 52´ 24´´ E004º 13´ 14´´
04:46 Gear Up: 171 Knots
04:46 Flaps:3 at 171 Knots
04:46 Flaps:2 at 173 Knots
04:47 Flaps:1 at 210 Knots
04:47 Flaps:0 at 219 Knots
04:55 TOC
04:55 Fuel Weight: 18844 Lb
05:01 Wind:270º@037 Knots Heading: 280º Ground Speed: 387 Knots Altitude 22962 ft
05:14 TOD
05:14 Fuel Weight: 16746 Lb
05:16 Wind:307º@020 Knots Heading: 267º Ground Speed: 361 Knots Altitude 19534 ft
05:25 Flaps:1 at 248 Knots
05:25 Flaps:2 at 235 Knots
05:25 Flaps:3 at 233 Knots
05:25 Flaps:4 at 231 Knots
05:26 Flaps:5 at 189 Knots
05:27 Gear Down: 176 Knots
05:29 Flaps:6 at 181 Knots
05:30 Flaps:7 at 167 Knots
05:30 Flaps:8 at 158 Knots
05:31 Wind:312º@003 Knots Heading: 295º Ground Speed: 147 Knots Altitude 2588 ft
05:34 TouchDown:Rate -292 ft/min Speed: 136 Knots
05:34 VATSIM:LEVC 130500Z 31007KT 9999 FEW020 20/15 Q1019 NOSIG
05:34 Land
05:34 Wind:069º@000 Knots
05:34 Heading: 294º
05:34 Flight Duration: 00:48
05:34 Landing Weight: 150833 Lbs
05:34 POS N39º 29´ 34´´ W000º 29´ 29´´
05:39 Parking brakes on
05:39 Block to Block Duration: 01:05
05:39 Final Fuel: 14885 Lbls
05:39 Spent Fuel: 7312 Lbls
05:39 Flight Length: 256 NM
05:39 TOD Land Length: 84 NM

Exportar CSV

Powered by Drupal - Modified by Danger4k